METAR Data

Data at: 1152 UTC 24 May 2022

METAR for:KPSM (Portsmouth Intl, NH, US)
Text:KPSM 241056Z 01007KT 10SM FEW170 BKN250 11/01 A3036 RMK AO2A SLP284 T01110008
Temperature: 11.1°C ( 52°F)
Dewpoint: 0.8°C ( 33°F) [RH = 49%]
Pressure (altimeter):30.36 inches Hg (1028.2 mb) [Sea level pressure: 1028.4 mb]
Winds:from the N (10 degrees) at 8 MPH (7 knots; 3.6 m/s)
Visibility:10 or more sm (16+ km)
Ceiling:25000 feet AGL
Clouds: few clouds at 17000 feet AGL, broken clouds at 25000 feet AGL